createdAt,value
2023-01-30T00:03:56.289Z,23.25
2023-01-30T00:08:55.177Z,24.46
2023-01-30T00:13:53.515Z,24.27
2023-01-30T00:18:54.608Z,24.87
2023-01-30T00:23:52.923Z,24.96
2023-01-30T00:28:53.035Z,25.55
2023-01-30T00:33:51.343Z,25.20
2023-01-30T00:38:50.666Z,24.76
2023-01-30T00:43:52.019Z,24.00
2023-01-30T00:48:49.085Z,23.20
2023-01-30T00:53:49.416Z,22.51
2023-01-30T00:58:48.683Z,21.90
2023-01-30T01:03:47.012Z,21.28
2023-01-30T01:08:46.112Z,20.62
2023-01-30T01:13:45.297Z,20.06
2023-01-30T01:18:44.569Z,19.50
2023-01-30T01:23:43.741Z,18.70
2023-01-30T01:28:42.955Z,18.48
2023-01-30T01:33:42.160Z,17.81
2023-01-30T01:38:42.400Z,17.51
2023-01-30T01:43:40.603Z,17.36
2023-01-30T01:48:40.829Z,17.06
2023-01-30T01:53:39.053Z,16.64
2023-01-30T01:58:38.272Z,16.45
2023-01-30T02:03:37.507Z,16.15
2023-01-30T02:08:36.744Z,15.93
2023-01-30T02:13:35.936Z,15.57
2023-01-30T02:18:36.144Z,15.47
2023-01-30T02:23:36.386Z,15.31
2023-01-30T02:28:34.596Z,15.17
2023-01-30T02:33:34.754Z,15.02
2023-01-30T02:38:31.961Z,14.75
2023-01-30T02:43:32.152Z,14.86
2023-01-30T02:48:30.340Z,14.75
2023-01-30T02:53:29.532Z,14.54
2023-01-30T02:58:28.694Z,14.28
2023-01-30T03:03:27.887Z,14.18
2023-01-30T03:08:27.126Z,13.91
2023-01-30T03:13:26.375Z,14.21
2023-01-30T03:18:26.530Z,14.36
2023-01-30T03:23:25.723Z,15.27
2023-01-30T03:28:25.951Z,14.95
2023-01-30T03:33:22.157Z,15.17
2023-01-30T03:38:22.455Z,15.11
2023-01-30T03:43:21.651Z,14.77
2023-01-30T03:48:20.854Z,14.36
2023-01-30T03:53:20.073Z,14.12
2023-01-30T03:58:19.259Z,14.58
2023-01-30T04:03:17.544Z,13.92
2023-01-30T04:08:17.753Z,14.70
2023-01-30T04:13:18.036Z,14.47
2023-01-30T04:18:17.237Z,14.39
2023-01-30T04:23:15.456Z,15.07
2023-01-30T04:28:14.636Z,16.07
2023-01-30T04:33:14.829Z,16.81
2023-01-30T04:38:15.032Z,16.61
2023-01-30T04:43:12.193Z,16.78
2023-01-30T04:48:13.374Z,16.58
2023-01-30T04:53:10.558Z,16.38
2023-01-30T04:58:09.756Z,16.39
2023-01-30T05:03:09.146Z,16.38
2023-01-30T05:08:08.325Z,16.21
2023-01-30T05:13:07.478Z,16.07
2023-01-30T05:18:08.588Z,15.53
2023-01-30T05:23:06.940Z,15.92
2023-01-30T05:28:47.312Z,16.01
2023-01-30T05:33:04.619Z,15.92
2023-01-30T05:38:03.766Z,15.74
2023-01-30T05:43:03.093Z,16.11
2023-01-30T05:48:02.404Z,16.31
2023-01-30T05:53:01.719Z,18.05
2023-01-30T05:58:44.085Z,19.62
2023-01-30T06:03:00.371Z,19.56
2023-01-30T06:08:00.475Z,19.71
2023-01-30T06:12:58.772Z,19.02
2023-01-30T06:17:58.072Z,19.21
2023-01-30T06:22:57.370Z,18.88
2023-01-30T06:27:56.692Z,18.75
2023-01-30T06:32:57.025Z,18.15
2023-01-30T06:37:57.125Z,17.75
2023-01-30T06:42:55.420Z,17.49
2023-01-30T06:47:54.751Z,17.37
2023-01-30T06:52:54.087Z,17.08
2023-01-30T06:57:52.205Z,17.21
2023-01-30T07:02:52.557Z,16.97
2023-01-30T07:07:50.711Z,16.63
2023-01-30T07:12:49.872Z,18.58
2023-01-30T07:17:49.015Z,21.88
2023-01-30T07:22:48.342Z,23.43
2023-01-30T07:27:47.658Z,23.53
2023-01-30T07:32:46.978Z,23.17
2023-01-30T07:37:47.280Z,22.65
2023-01-30T07:42:45.593Z,22.05
2023-01-30T07:47:44.894Z,21.68
2023-01-30T07:52:44.190Z,21.37
2023-01-30T07:57:43.495Z,21.12
2023-01-30T08:02:42.801Z,20.73
2023-01-30T08:07:42.998Z,20.55
2023-01-30T08:12:41.305Z,20.32
2023-01-30T08:17:41.457Z,20.02
2023-01-30T08:22:39.731Z,19.77
2023-01-30T08:27:39.864Z,19.54
2023-01-30T08:32:37.983Z,19.28
2023-01-30T08:37:38.125Z,19.43
2023-01-30T08:42:38.299Z,21.12
2023-01-30T08:47:36.422Z,23.79
2023-01-30T08:52:34.772Z,24.39
2023-01-30T08:57:33.929Z,24.09
2023-01-30T09:02:33.118Z,23.68
2023-01-30T09:07:33.293Z,23.07
2023-01-30T09:12:30.412Z,22.51
2023-01-30T09:17:31.743Z,22.10
2023-01-30T09:22:31.055Z,21.74
2023-01-30T09:27:29.386Z,21.40
2023-01-30T09:32:28.723Z,21.10
2023-01-30T09:37:28.801Z,20.79
2023-01-30T09:42:27.096Z,20.50
2023-01-30T09:47:26.394Z,20.24
2023-01-30T09:52:26.742Z,19.96
2023-01-30T09:57:27.043Z,19.74
2023-01-30T10:02:24.330Z,19.50
2023-01-30T10:07:23.723Z,19.43
2023-01-30T10:12:24.843Z,20.21
2023-01-30T10:17:24.214Z,22.27
2023-01-30T10:22:22.346Z,23.35
2023-01-30T10:27:20.488Z,23.39
2023-01-30T10:32:19.636Z,22.95
2023-01-30T10:37:18.972Z,22.52
2023-01-30T10:42:18.129Z,22.06
2023-01-30T10:47:18.282Z,21.80
2023-01-30T10:52:16.471Z,21.49
2023-01-30T10:57:16.619Z,21.14
2023-01-30T11:02:14.950Z,20.94
2023-01-30T11:07:13.283Z,20.72
2023-01-30T11:12:13.593Z,20.48
2023-01-30T11:17:12.955Z,20.20
2023-01-30T11:22:13.086Z,20.01
2023-01-30T11:27:11.439Z,19.80
2023-01-30T11:32:11.637Z,20.10
2023-01-30T11:37:09.748Z,21.98
2023-01-30T11:42:09.053Z,23.58
2023-01-30T11:47:08.358Z,23.98
2023-01-30T11:52:07.698Z,23.69
2023-01-30T11:57:07.844Z,23.33
2023-01-30T12:02:06.012Z,22.86
2023-01-30T12:07:05.156Z,22.47
2023-01-30T12:12:04.488Z,22.05
2023-01-30T12:17:03.802Z,21.69
2023-01-30T12:22:05.130Z,21.43
2023-01-30T12:27:02.431Z,21.17
2023-01-30T12:32:03.737Z,20.88
2023-01-30T12:37:01.068Z,20.64
2023-01-30T12:42:01.384Z,20.41
2023-01-30T12:47:00.711Z,20.26
2023-01-30T12:51:59.144Z,20.02
2023-01-30T12:56:57.063Z,20.28
2023-01-30T13:01:57.409Z,22.07
2023-01-30T13:06:56.544Z,23.73
2023-01-30T13:11:55.856Z,24.64
2023-01-30T13:16:55.169Z,24.34
2023-01-30T13:21:54.479Z,23.93
2023-01-30T13:26:53.891Z,23.43
2023-01-30T13:31:53.177Z,23.00
2023-01-30T13:36:52.272Z,22.68
2023-01-30T13:41:56.582Z,22.21
2023-01-30T13:46:51.825Z,21.98
2023-01-30T13:51:49.764Z,21.65
2023-01-30T13:56:49.917Z,21.40
2023-01-30T14:01:48.258Z,21.12
2023-01-30T14:06:47.400Z,20.87
2023-01-30T14:11:46.747Z,20.64
2023-01-30T14:16:46.868Z,20.42
2023-01-30T14:21:45.178Z,20.23
2023-01-30T14:26:46.673Z,20.08
2023-01-30T14:31:43.850Z,20.32
2023-01-30T14:36:43.066Z,21.83
2023-01-30T14:41:42.218Z,23.53
2023-01-30T14:46:41.615Z,23.97
2023-01-30T14:51:40.786Z,23.69
2023-01-30T14:56:39.976Z,23.23
2023-01-30T15:01:39.160Z,22.88
2023-01-30T15:06:42.413Z,22.47
2023-01-30T15:11:38.540Z,22.18
2023-01-30T15:16:37.949Z,21.88
2023-01-30T15:21:35.094Z,21.59
2023-01-30T15:26:36.279Z,21.35
2023-01-30T15:31:35.553Z,21.04
2023-01-30T15:36:35.691Z,20.79
2023-01-30T15:41:33.074Z,20.57
2023-01-30T15:46:33.197Z,20.32
2023-01-30T15:51:31.518Z,20.14
2023-01-30T15:56:31.840Z,19.92
2023-01-30T16:01:30.423Z,19.95
2023-01-30T16:06:29.450Z,20.18
2023-01-30T16:11:29.821Z,21.64
2023-01-30T16:16:28.014Z,22.20
2023-01-30T16:21:27.300Z,22.39
2023-01-30T16:26:28.248Z,22.46
2023-01-30T16:31:25.729Z,22.55
2023-01-30T16:36:25.726Z,22.22
2023-01-30T16:41:26.086Z,21.98
2023-01-30T16:46:23.305Z,21.71
2023-01-30T16:51:23.459Z,21.46
2023-01-30T16:56:21.886Z,21.25
2023-01-30T17:01:21.472Z,21.04
2023-01-30T17:06:21.333Z,20.80
2023-01-30T17:11:19.479Z,20.64
2023-01-30T17:16:18.862Z,20.41
2023-01-30T17:21:18.090Z,20.20
2023-01-30T17:26:18.612Z,20.01
2023-01-30T17:31:17.500Z,19.94
2023-01-30T17:36:16.700Z,20.50
2023-01-30T17:41:16.162Z,22.07
2023-01-30T17:46:15.298Z,25.14
2023-01-30T17:51:13.433Z,27.17
2023-01-30T17:56:13.920Z,28.52
2023-01-30T18:01:12.396Z,29.27
2023-01-30T18:06:12.701Z,29.68
2023-01-30T18:11:12.596Z,30.19
2023-01-30T18:16:09.737Z,30.04
2023-01-30T18:21:09.229Z,29.65
2023-01-30T18:26:08.359Z,29.98
2023-01-30T18:31:07.833Z,30.39
2023-01-30T18:36:06.914Z,30.80
2023-01-30T18:41:06.248Z,31.32
2023-01-30T18:46:07.502Z,30.76
2023-01-30T18:51:04.810Z,30.62
2023-01-30T18:56:04.825Z,30.75
2023-01-30T19:01:03.425Z,30.88
2023-01-30T19:06:06.365Z,31.19
2023-01-30T19:11:02.091Z,31.19
2023-01-30T19:16:01.141Z,31.39
2023-01-30T19:21:00.661Z,31.61
2023-01-30T19:26:00.539Z,31.72
2023-01-30T19:30:59.331Z,31.85
2023-01-30T19:36:02.414Z,32.06
2023-01-30T19:40:57.388Z,31.93
2023-01-30T19:45:59.328Z,31.81
2023-01-30T19:50:58.242Z,31.84
2023-01-30T19:55:55.569Z,31.92
2023-01-30T20:00:54.757Z,32.19
2023-01-30T20:05:53.602Z,32.48
2023-01-30T20:10:55.097Z,32.55
2023-01-30T20:15:53.350Z,32.48
2023-01-30T20:20:51.445Z,32.25
2023-01-30T20:25:50.762Z,32.30
2023-01-30T20:30:54.049Z,32.40
2023-01-30T20:35:49.421Z,32.45
2023-01-30T20:40:49.513Z,32.45
2023-01-30T20:45:47.935Z,32.55
2023-01-30T20:50:47.078Z,32.79
2023-01-30T20:55:47.408Z,33.16
2023-01-30T21:00:45.541Z,33.35
2023-01-30T21:05:45.856Z,33.37
2023-01-30T21:10:44.053Z,33.35
2023-01-30T21:15:46.200Z,32.99
2023-01-30T21:20:42.324Z,32.84
2023-01-30T21:25:42.728Z,32.87
2023-01-30T21:30:40.950Z,32.87
2023-01-30T21:35:40.278Z,33.04
2023-01-30T21:40:41.351Z,33.00
2023-01-30T21:45:39.145Z,32.84
2023-01-30T21:50:38.043Z,32.97
2023-01-30T21:55:37.784Z,32.94
2023-01-30T22:00:37.752Z,33.00
2023-01-30T22:05:37.684Z,32.87
2023-01-30T22:10:34.942Z,32.87
2023-01-30T22:15:33.375Z,33.03
2023-01-30T22:20:34.521Z,33.21
2023-01-30T22:25:33.837Z,33.35
2023-01-30T22:30:32.219Z,33.18
2023-01-30T22:35:31.342Z,32.97
2023-01-30T22:40:30.673Z,32.92
2023-01-30T22:45:30.037Z,33.00
2023-01-30T22:50:29.202Z,32.97
2023-01-30T22:55:27.539Z,33.06
2023-01-30T23:00:27.628Z,33.38
2023-01-30T23:05:25.928Z,33.23
2023-01-30T23:10:27.223Z,33.34
2023-01-30T23:15:25.591Z,33.35
2023-01-30T23:20:24.715Z,33.60
2023-01-30T23:25:24.124Z,33.73
2023-01-30T23:30:24.268Z,33.68
2023-01-30T23:35:24.794Z,33.73
2023-01-30T23:40:21.926Z,33.57
2023-01-30T23:45:20.483Z,33.29
2023-01-30T23:50:21.479Z,33.28
2023-01-30T23:55:19.938Z,33.26
